createdAt,value
2017-07-27T00:02:22.100Z,6.20
2017-07-27T00:04:53.759Z,8.07
2017-07-27T00:07:25.066Z,6.47
2017-07-27T00:09:56.442Z,5.50
2017-07-27T00:12:27.722Z,4.77
2017-07-27T00:14:59.466Z,5.57
2017-07-27T00:17:30.730Z,8.70
2017-07-27T00:20:04.502Z,4.97
2017-07-27T00:22:36.139Z,5.53
2017-07-27T00:25:07.418Z,4.83
2017-07-27T00:27:38.969Z,6.10
2017-07-27T00:30:10.335Z,6.13
2017-07-27T00:32:41.644Z,7.43
2017-07-27T00:35:13.318Z,4.97
2017-07-27T00:37:44.599Z,6.30
2017-07-27T00:40:17.773Z,6.50
2017-07-27T00:45:28.667Z,8.03
2017-07-27T00:47:59.926Z,6.57
2017-07-27T00:50:31.638Z,5.17
2017-07-27T00:53:02.988Z,5.40
2017-07-27T00:55:34.289Z,4.80
2017-07-27T00:58:13.047Z,4.90
2017-07-27T01:00:44.378Z,10.60
2017-07-27T01:03:17.124Z,6.17
2017-07-27T01:05:49.236Z,5.60
2017-07-27T01:08:20.967Z,5.10
2017-07-27T01:10:52.962Z,4.63
2017-07-27T01:13:24.303Z,5.37
2017-07-27T01:15:55.803Z,5.50
2017-07-27T01:18:27.926Z,5.10
2017-07-27T01:20:59.195Z,5.00
2017-07-27T01:23:30.460Z,5.50
2017-07-27T01:26:02.297Z,5.70
2017-07-27T01:28:33.612Z,7.27
2017-07-27T01:31:09.888Z,5.37
2017-07-27T01:33:41.442Z,5.03
2017-07-27T01:36:13.294Z,8.67
2017-07-27T01:38:44.992Z,5.67
2017-07-27T01:41:16.435Z,6.17
2017-07-27T01:43:47.724Z,6.27
2017-07-27T01:46:19.447Z,10.33
2017-07-27T01:48:50.766Z,6.83
2017-07-27T01:51:22.100Z,6.40
2017-07-27T01:53:53.425Z,7.70
2017-07-27T01:56:25.241Z,7.20
2017-07-27T01:58:57.047Z,7.63
2017-07-27T02:01:28.342Z,7.13
2017-07-27T02:03:59.663Z,12.40
2017-07-27T02:06:31.368Z,6.97
2017-07-27T02:09:02.732Z,7.13
2017-07-27T02:11:34.050Z,6.97
2017-07-27T02:14:06.963Z,7.80
2017-07-27T02:16:38.285Z,7.50
2017-07-27T02:19:09.611Z,7.40
2017-07-27T02:21:40.972Z,8.10
2017-07-27T02:24:12.381Z,7.87
2017-07-27T02:26:44.058Z,7.20
2017-07-27T02:29:15.414Z,7.50
2017-07-27T02:31:46.734Z,9.10
2017-07-27T02:34:18.567Z,11.93
2017-07-27T02:36:49.866Z,12.37
2017-07-27T02:39:22.340Z,8.63
2017-07-27T02:41:53.694Z,9.63
2017-07-27T02:44:24.986Z,10.80
2017-07-27T02:46:56.572Z,8.37
2017-07-27T02:49:27.850Z,10.27
2017-07-27T02:51:59.152Z,11.93
2017-07-27T02:54:30.829Z,13.17
2017-07-27T02:57:02.144Z,10.83
2017-07-27T02:59:33.749Z,10.80
2017-07-27T03:02:06.344Z,11.17
2017-07-27T03:04:37.680Z,16.33
2017-07-27T03:07:09.249Z,20.97
2017-07-27T03:09:40.998Z,10.77
2017-07-27T03:12:13.283Z,9.70
2017-07-27T03:14:44.588Z,9.47
2017-07-27T03:17:16.370Z,10.20
2017-07-27T03:19:47.678Z,17.17
2017-07-27T03:22:19.512Z,15.20
2017-07-27T03:24:51.847Z,9.73
2017-07-27T03:27:23.145Z,9.60
2017-07-27T03:29:54.420Z,10.63
2017-07-27T03:32:25.734Z,9.73
2017-07-27T03:34:57.427Z,12.83
2017-07-27T03:37:28.717Z,11.13
2017-07-27T03:40:00.325Z,9.90
2017-07-27T03:42:31.655Z,10.00
2017-07-27T03:45:02.986Z,9.87
2017-07-27T03:47:34.279Z,13.23
2017-07-27T03:50:06.736Z,12.70
2017-07-27T03:52:38.460Z,13.50
2017-07-27T03:55:09.946Z,10.30
2017-07-27T03:57:41.273Z,10.97
2017-07-27T04:00:14.028Z,19.47
2017-07-27T04:02:45.337Z,12.53
2017-07-27T04:05:16.909Z,9.90
2017-07-27T04:07:48.628Z,10.47
2017-07-27T04:10:21.972Z,14.40
2017-07-27T04:12:53.726Z,18.30
2017-07-27T04:15:25.048Z,16.23
2017-07-27T04:17:56.397Z,10.70
2017-07-27T04:20:28.159Z,13.80
2017-07-27T04:22:59.453Z,11.27
2017-07-27T04:25:30.747Z,10.03
2017-07-27T04:28:03.821Z,12.77
2017-07-27T04:30:35.114Z,14.40
2017-07-27T04:33:06.424Z,13.50
2017-07-27T04:35:38.146Z,11.63
2017-07-27T04:38:10.288Z,10.67
2017-07-27T04:40:41.562Z,11.20
2017-07-27T04:43:12.944Z,11.10
2017-07-27T04:45:44.243Z,14.50
2017-07-27T04:48:16.725Z,13.10
2017-07-27T04:50:48.001Z,12.63
2017-07-27T04:53:19.288Z,15.80
2017-07-27T04:55:50.884Z,12.53
2017-07-27T04:58:22.227Z,12.07
2017-07-27T05:00:53.507Z,14.10
2017-07-27T05:03:25.299Z,13.00
2017-07-27T05:05:56.594Z,9.77
2017-07-27T05:08:28.154Z,12.40
2017-07-27T05:10:59.458Z,10.67
2017-07-27T05:13:31.829Z,8.77
2017-07-27T05:18:49.069Z,8.60
2017-07-27T05:21:20.384Z,8.43
2017-07-27T05:23:52.011Z,9.63
2017-07-27T05:26:23.316Z,10.07
2017-07-27T05:28:54.731Z,9.40
2017-07-27T05:31:26.052Z,7.00
2017-07-27T05:33:59.480Z,8.90
2017-07-27T05:36:30.810Z,7.37
2017-07-27T05:39:02.375Z,10.93
2017-07-27T05:41:34.106Z,8.20
2017-07-27T05:44:07.162Z,9.37
2017-07-27T05:46:38.471Z,13.63
2017-07-27T05:49:10.058Z,8.60
2017-07-27T05:51:41.332Z,14.23
2017-07-27T05:54:16.162Z,10.03
2017-07-27T05:56:47.517Z,8.83
2017-07-27T05:59:19.685Z,7.80
2017-07-27T06:01:50.993Z,10.70
2017-07-27T06:04:22.851Z,10.50
2017-07-27T06:06:54.126Z,7.30
2017-07-27T06:09:25.425Z,5.90
2017-07-27T06:11:57.197Z,5.80
2017-07-27T06:14:28.691Z,6.30
2017-07-27T06:16:59.979Z,6.90
2017-07-27T06:19:31.327Z,8.40
2017-07-27T06:22:03.759Z,7.73
2017-07-27T06:24:35.394Z,8.60
2017-07-27T06:27:06.733Z,9.30
2017-07-27T06:29:38.016Z,9.80
2017-07-27T06:32:10.072Z,12.33
2017-07-27T06:34:41.363Z,9.07
2017-07-27T06:37:12.706Z,9.90
2017-07-27T06:39:45.563Z,12.00
2017-07-27T06:42:17.480Z,13.60
2017-07-27T06:44:48.766Z,7.90
2017-07-27T06:47:20.517Z,9.07
2017-07-27T06:49:51.877Z,7.00
2017-07-27T06:52:23.216Z,5.77
2017-07-27T06:54:54.592Z,5.13
2017-07-27T06:57:26.720Z,5.50
2017-07-27T06:59:58.164Z,4.37
2017-07-27T07:02:29.910Z,3.80
2017-07-27T07:05:01.203Z,3.20
2017-07-27T07:07:32.579Z,4.80
2017-07-27T07:10:07.170Z,3.23
2017-07-27T07:12:39.229Z,3.60
2017-07-27T07:15:10.894Z,3.10
2017-07-27T07:17:42.147Z,2.90
2017-07-27T07:20:13.767Z,3.60
2017-07-27T07:22:45.728Z,2.77
2017-07-27T07:25:17.083Z,3.00
2017-07-27T07:27:48.400Z,2.57
2017-07-27T07:30:20.488Z,3.93
2017-07-27T07:32:51.782Z,3.13
2017-07-27T07:35:23.139Z,2.70
2017-07-27T07:37:54.970Z,4.17
2017-07-27T07:40:26.641Z,2.43
2017-07-27T07:42:57.961Z,2.33
2017-07-27T07:45:29.270Z,2.43
2017-07-27T07:48:00.578Z,2.20
2017-07-27T07:50:32.240Z,2.37
2017-07-27T07:53:03.549Z,3.17
2017-07-27T07:55:35.446Z,3.80
2017-07-27T07:58:11.111Z,2.20
2017-07-27T08:03:39.453Z,2.90
2017-07-27T08:06:12.346Z,2.70
2017-07-27T08:08:53.019Z,3.80
2017-07-27T08:11:25.154Z,5.27
2017-07-27T08:13:57.507Z,9.50
2017-07-27T08:16:43.156Z,32.13
2017-07-27T08:19:14.800Z,2.37
2017-07-27T08:21:46.151Z,4.33
2017-07-27T08:24:17.527Z,3.00
2017-07-27T08:26:49.172Z,2.57
2017-07-27T08:29:20.652Z,2.50
2017-07-27T08:34:47.120Z,2.27
2017-07-27T08:37:19.288Z,1.83
2017-07-27T08:39:51.016Z,2.10
2017-07-27T08:42:22.623Z,2.90
2017-07-27T08:44:54.184Z,5.23
2017-07-27T08:47:25.565Z,1.90
2017-07-27T08:49:56.965Z,25.17
2017-07-27T08:52:32.417Z,52.00
2017-07-27T08:58:00.934Z,99.83
2017-07-27T09:00:32.735Z,106.40
2017-07-27T09:03:05.223Z,109.23
2017-07-27T09:05:39.992Z,103.70
2017-07-27T09:08:12.155Z,100.20
2017-07-27T09:10:50.141Z,103.87
2017-07-27T09:13:22.088Z,102.50
2017-07-27T09:15:53.649Z,104.37
2017-07-27T09:18:29.629Z,104.17
2017-07-27T09:23:55.973Z,100.30
2017-07-27T09:26:27.437Z,101.67
2017-07-27T09:28:58.777Z,98.77
2017-07-27T09:31:30.539Z,103.43
2017-07-27T09:34:04.142Z,98.60
2017-07-27T09:36:40.129Z,102.00
2017-07-27T09:39:13.898Z,102.07
2017-07-27T09:41:45.461Z,104.47
2017-07-27T09:44:17.973Z,98.13
2017-07-27T09:46:50.321Z,104.67
2017-07-27T09:49:22.147Z,100.60
2017-07-27T09:51:54.080Z,97.27
2017-07-27T09:57:32.738Z,100.47
2017-07-27T10:03:08.176Z,108.03
2017-07-27T10:05:40.011Z,99.40
2017-07-27T10:08:14.113Z,95.10
2017-07-27T10:10:45.431Z,100.93
2017-07-27T10:13:16.780Z,107.17
2017-07-27T10:15:48.484Z,100.10
2017-07-27T10:18:22.081Z,102.87
2017-07-27T10:21:00.004Z,38.23
2017-07-27T10:23:32.123Z,4.57
2017-07-27T10:26:04.909Z,3.00
2017-07-27T10:28:36.303Z,3.57
2017-07-27T10:31:07.718Z,8.10
2017-07-27T10:33:39.642Z,7.20
2017-07-27T10:36:11.173Z,6.00
2017-07-27T10:38:42.548Z,3.77
2017-07-27T10:41:14.197Z,10.50
2017-07-27T10:43:47.527Z,3.50
2017-07-27T10:46:21.892Z,4.00
2017-07-27T10:48:58.018Z,3.37
2017-07-27T10:51:32.045Z,2.70
2017-07-27T10:54:07.714Z,4.60
2017-07-27T10:56:39.354Z,11.73
2017-07-27T10:59:11.068Z,3.80
2017-07-27T11:01:42.477Z,3.63
2017-07-27T11:04:15.279Z,3.50
2017-07-27T11:06:47.672Z,8.97
2017-07-27T11:09:19.384Z,4.10
2017-07-27T11:11:50.851Z,3.00
2017-07-27T11:14:22.695Z,4.50
2017-07-27T11:16:54.173Z,3.93
2017-07-27T11:19:26.060Z,3.17
2017-07-27T11:21:58.073Z,3.87
2017-07-27T11:24:29.785Z,4.50
2017-07-27T11:27:05.638Z,3.40
2017-07-27T11:29:38.816Z,10.03
2017-07-27T11:32:14.451Z,6.50
2017-07-27T11:34:51.450Z,3.10
2017-07-27T11:37:23.647Z,3.73
2017-07-27T11:39:56.794Z,2.57
2017-07-27T11:42:30.343Z,2.70
2017-07-27T11:45:09.380Z,3.90
2017-07-27T11:47:41.840Z,2.70
2017-07-27T11:50:23.662Z,5.37
2017-07-27T11:52:59.132Z,2.57
2017-07-27T11:55:42.698Z,2.63
2017-07-27T11:58:22.374Z,2.63
2017-07-27T12:04:17.480Z,2.40
2017-07-27T12:10:06.321Z,6.07
2017-07-27T12:12:58.546Z,5.07
2017-07-27T12:18:23.728Z,2.03
2017-07-27T12:21:06.787Z,3.57
2017-07-27T12:23:56.625Z,6.73
2017-07-27T12:26:48.890Z,8.90
2017-07-27T12:35:50.010Z,1.70
2017-07-27T12:45:05.934Z,1.30
2017-07-27T12:52:46.029Z,1.37
2017-07-27T13:04:17.422Z,1.33
2017-07-27T13:07:07.631Z,1.90
2017-07-27T13:09:42.818Z,1.23
2017-07-27T13:18:14.363Z,1.53
2017-07-27T13:20:57.906Z,1.93
2017-07-27T13:23:34.448Z,1.40
2017-07-27T13:26:20.297Z,1.77
2017-07-27T13:29:02.357Z,1.07
2017-07-27T13:31:45.822Z,6.60
2017-07-27T13:34:18.035Z,2.17
2017-07-27T13:39:21.064Z,1.30
2017-07-27T13:41:52.739Z,2.43
2017-07-27T13:44:24.516Z,7.03
2017-07-27T13:46:56.176Z,3.07
2017-07-27T13:49:27.491Z,1.20
2017-07-27T13:52:00.583Z,1.20
2017-07-27T13:54:35.227Z,2.03
2017-07-27T14:00:05.249Z,1.00
2017-07-27T14:02:36.652Z,1.20
2017-07-27T14:05:08.405Z,2.53
2017-07-27T14:07:39.697Z,0.70
2017-07-27T14:10:11.054Z,3.50
2017-07-27T14:12:42.378Z,2.10
2017-07-27T14:15:13.709Z,4.47
2017-07-27T14:17:45.313Z,0.93
2017-07-27T14:20:16.656Z,1.00
2017-07-27T14:22:47.997Z,2.00
2017-07-27T14:25:20.563Z,1.10
2017-07-27T14:27:51.924Z,1.07
2017-07-27T14:30:23.333Z,3.77
2017-07-27T14:32:54.969Z,2.03
2017-07-27T14:35:26.318Z,1.83
2017-07-27T14:37:58.089Z,2.33
2017-07-27T14:40:29.432Z,1.30
2017-07-27T14:43:00.757Z,0.93
2017-07-27T14:45:32.441Z,1.67
2017-07-27T14:48:04.400Z,1.60
2017-07-27T14:50:37.018Z,1.10
2017-07-27T14:53:08.747Z,1.27
2017-07-27T14:55:40.091Z,1.90
2017-07-27T14:58:16.061Z,1.47
2017-07-27T15:00:48.708Z,1.87
2017-07-27T15:03:20.170Z,1.20
2017-07-27T15:05:51.825Z,1.33
2017-07-27T15:08:23.218Z,1.60
2017-07-27T15:10:55.903Z,1.90
2017-07-27T15:13:27.444Z,1.60
2017-07-27T15:18:38.822Z,1.10
2017-07-27T15:21:10.251Z,4.17
2017-07-27T15:23:42.310Z,1.33
2017-07-27T15:26:13.706Z,1.27
2017-07-27T15:28:45.090Z,2.20
2017-07-27T15:31:17.099Z,1.43
2017-07-27T15:33:48.580Z,1.30
2017-07-27T15:36:19.977Z,4.30
2017-07-27T15:38:51.709Z,2.93
2017-07-27T15:41:23.195Z,2.73
2017-07-27T15:43:55.115Z,1.63
2017-07-27T15:46:26.473Z,1.43
2017-07-27T15:48:57.891Z,1.23
2017-07-27T15:51:29.525Z,1.83
2017-07-27T15:54:01.151Z,1.40
2017-07-27T16:02:24.223Z,18.27
2017-07-27T16:04:55.862Z,3.20
2017-07-27T16:07:27.301Z,1.90
2017-07-27T16:09:58.988Z,4.87
2017-07-27T16:12:30.364Z,1.40
2017-07-27T16:15:01.708Z,2.80
2017-07-27T16:17:33.071Z,2.10
2017-07-27T16:20:10.645Z,1.57
2017-07-27T16:22:42.152Z,1.67
2017-07-27T16:25:13.870Z,2.40
2017-07-27T16:27:45.274Z,2.07
2017-07-27T16:30:17.699Z,1.70
2017-07-27T16:32:49.245Z,1.63
2017-07-27T16:35:20.900Z,2.30
2017-07-27T16:37:52.237Z,8.23
2017-07-27T16:40:25.251Z,1.53
2017-07-27T16:42:57.010Z,1.57
2017-07-27T16:45:28.510Z,3.67
2017-07-27T16:48:00.744Z,1.43
2017-07-27T16:50:32.782Z,2.63
2017-07-27T16:53:06.551Z,2.43
2017-07-27T16:55:37.903Z,1.60
2017-07-27T16:58:09.635Z,1.87
2017-07-27T17:00:40.936Z,2.03
2017-07-27T17:03:13.213Z,2.83
2017-07-27T17:05:44.840Z,2.23
2017-07-27T17:08:17.953Z,2.60
2017-07-27T17:10:49.444Z,2.70
2017-07-27T17:13:22.240Z,3.00
2017-07-27T17:15:53.572Z,3.93
2017-07-27T17:18:29.835Z,5.17
2017-07-27T17:21:01.556Z,3.43
2017-07-27T17:23:33.391Z,2.07
2017-07-27T17:26:07.443Z,3.50
2017-07-27T17:28:39.091Z,2.03
2017-07-27T17:31:11.377Z,11.00
2017-07-27T17:33:42.885Z,3.57
2017-07-27T17:36:17.165Z,7.10
2017-07-27T17:38:49.161Z,6.03
2017-07-27T17:41:20.606Z,2.47
2017-07-27T17:43:52.392Z,1.90
2017-07-27T17:46:23.733Z,51.20
2017-07-27T17:48:55.065Z,47.70
2017-07-27T17:51:26.714Z,42.13
2017-07-27T17:53:58.080Z,41.60
2017-07-27T17:56:33.292Z,37.83
2017-07-27T17:59:08.224Z,24.70
2017-07-27T18:01:41.818Z,7.80
2017-07-27T18:04:18.582Z,19.03
2017-07-27T18:06:50.196Z,66.90
2017-07-27T18:09:21.526Z,12.87
2017-07-27T18:11:54.156Z,68.23
2017-07-27T18:14:26.843Z,55.90
2017-07-27T18:17:03.233Z,77.37
2017-07-27T18:19:35.534Z,59.90
2017-07-27T18:22:10.976Z,66.20
2017-07-27T18:24:49.149Z,46.53
2017-07-27T18:27:29.195Z,24.70
2017-07-27T18:30:02.494Z,13.30
2017-07-27T18:32:49.185Z,11.03
2017-07-27T18:35:22.138Z,13.50
2017-07-27T18:38:01.719Z,9.67
2017-07-27T18:40:37.007Z,5.43
2017-07-27T18:43:09.651Z,7.53
2017-07-27T18:45:43.637Z,18.13
2017-07-27T18:48:20.781Z,12.90
2017-07-27T18:53:49.089Z,7.50
2017-07-27T18:56:23.489Z,4.97
2017-07-27T18:58:57.829Z,6.73
2017-07-27T19:01:31.099Z,7.90
2017-07-27T19:04:05.666Z,2.77
2017-07-27T19:06:37.659Z,3.87
2017-07-27T19:09:11.438Z,3.33
2017-07-27T19:11:44.208Z,2.63
2017-07-27T19:14:18.485Z,3.63
2017-07-27T19:16:50.587Z,2.53
2017-07-27T19:19:23.303Z,4.17
2017-07-27T19:21:55.772Z,2.87
2017-07-27T19:24:28.028Z,3.33
2017-07-27T19:26:59.881Z,3.30
2017-07-27T19:29:31.553Z,2.93
2017-07-27T19:32:03.948Z,2.17
2017-07-27T19:34:36.044Z,4.00
2017-07-27T19:37:07.592Z,3.93
2017-07-27T19:39:39.004Z,2.93
2017-07-27T19:42:11.419Z,2.37
2017-07-27T19:44:42.994Z,2.80
2017-07-27T19:47:15.985Z,2.87
2017-07-27T19:49:50.788Z,3.70
2017-07-27T19:52:25.328Z,4.10
2017-07-27T19:54:57.903Z,3.13
2017-07-27T19:57:31.668Z,3.70
2017-07-27T20:00:08.528Z,2.50
2017-07-27T20:02:40.626Z,2.37
2017-07-27T20:05:13.068Z,10.03
2017-07-27T20:07:44.442Z,63.00
2017-07-27T20:10:17.061Z,19.53
2017-07-27T20:12:48.503Z,15.43
2017-07-27T20:18:17.608Z,7.00
2017-07-27T20:20:50.409Z,6.93
2017-07-27T20:23:22.707Z,5.13
2017-07-27T20:25:54.178Z,14.77
2017-07-27T20:28:26.927Z,3.60
2017-07-27T20:31:00.213Z,8.00
2017-07-27T20:33:32.658Z,2.80
2017-07-27T20:36:05.787Z,4.77
2017-07-27T20:38:37.990Z,4.93
2017-07-27T20:41:11.101Z,4.70
2017-07-27T20:43:44.932Z,6.97
2017-07-27T20:46:16.983Z,5.70
2017-07-27T20:48:48.916Z,6.20
2017-07-27T20:51:20.645Z,4.33
2017-07-27T20:53:52.771Z,9.80
2017-07-27T20:56:26.801Z,7.37
2017-07-27T20:59:00.030Z,5.00
2017-07-27T21:01:32.767Z,4.23
2017-07-27T21:04:05.636Z,5.03
2017-07-27T21:06:37.076Z,4.50
2017-07-27T21:09:09.013Z,6.50
2017-07-27T21:11:40.505Z,4.97
2017-07-27T21:14:15.006Z,5.33
2017-07-27T21:16:48.044Z,3.90
2017-07-27T21:19:20.795Z,2.97
2017-07-27T21:21:52.857Z,3.40
2017-07-27T21:24:25.337Z,4.27
2017-07-27T21:26:58.315Z,2.33
2017-07-27T21:29:30.537Z,2.70
2017-07-27T21:32:03.593Z,6.10
2017-07-27T21:34:35.415Z,4.20
2017-07-27T21:37:06.967Z,2.80
2017-07-27T21:39:39.049Z,37.43
2017-07-27T21:42:13.373Z,4.87
2017-07-27T21:44:48.048Z,3.90
2017-07-27T21:47:23.071Z,2.50
2017-07-27T21:49:58.777Z,2.10
2017-07-27T21:52:32.419Z,2.10
2017-07-27T21:57:59.375Z,2.13
2017-07-27T22:00:30.978Z,3.20
2017-07-27T22:03:02.427Z,3.07
2017-07-27T22:05:36.598Z,4.03
2017-07-27T22:08:10.459Z,4.60
2017-07-27T22:10:44.969Z,3.23
2017-07-27T22:13:16.547Z,3.07
2017-07-27T22:15:48.377Z,3.77
2017-07-27T22:18:21.251Z,3.70
2017-07-27T22:23:25.102Z,9.83
2017-07-27T22:25:56.851Z,3.33
2017-07-27T22:28:29.019Z,3.70
2017-07-27T22:31:01.060Z,4.87
2017-07-27T22:33:32.485Z,5.43
2017-07-27T22:36:04.533Z,6.00
2017-07-27T22:38:36.422Z,5.43
2017-07-27T22:41:08.048Z,4.50
2017-07-27T22:43:39.753Z,9.43
2017-07-27T22:46:11.526Z,6.33
2017-07-27T22:48:43.123Z,5.33
2017-07-27T22:51:14.587Z,7.27
2017-07-27T22:53:46.265Z,15.13
2017-07-27T22:56:17.549Z,6.30
2017-07-27T22:58:49.088Z,7.43
2017-07-27T23:01:22.870Z,17.10
2017-07-27T23:03:54.310Z,18.50
2017-07-27T23:06:25.773Z,16.07
2017-07-27T23:08:57.598Z,22.37
2017-07-27T23:11:28.924Z,19.07
2017-07-27T23:14:00.334Z,15.50
2017-07-27T23:16:32.082Z,8.23
2017-07-27T23:19:03.370Z,5.20
2017-07-27T23:21:34.731Z,3.97
2017-07-27T23:24:06.453Z,6.83
2017-07-27T23:26:37.735Z,3.80
2017-07-27T23:29:09.351Z,7.10
2017-07-27T23:31:40.618Z,5.60
2017-07-27T23:34:11.899Z,15.13
2017-07-27T23:36:43.185Z,10.70
2017-07-27T23:39:14.524Z,44.87
2017-07-27T23:41:46.203Z,64.13
2017-07-27T23:44:17.482Z,6.70
2017-07-27T23:46:48.857Z,76.27
2017-07-27T23:49:20.666Z,70.60
2017-07-27T23:51:53.004Z,70.80
2017-07-27T23:54:24.440Z,70.07
2017-07-27T23:58:25.548Z,73.03
